Time;durP1;ratioP1;P1;durP2;ratioP2;P2;SDS_P1;SDS_P2;PMS_P1;PMS_P2;Temp;Humidity;BMP_temperature;BMP_pressure;BME280_temperature;BME280_humidity;BME280_pressure;Samples;Min_cycle;Max_cycle;Signal;HPM_P1;HPM_P2
2021/04/14 00:01:09;;;;;;;4.70;3.38;;;8.20;58.70;;;;;;5040164;28;20078;-81
2021/04/14 00:03:36;;;;;;;3.50;2.60;;;8.20;58.80;;;;;;5067846;28;20028;-81
2021/04/14 00:06:02;;;;;;;3.63;2.88;;;8.10;58.80;;;;;;5042366;28;20159;-81
2021/04/14 00:08:30;;;;;;;3.30;2.60;;;8.20;58.80;;;;;;5044271;28;20095;-81
2021/04/14 00:10:56;;;;;;;3.97;2.83;;;8.10;58.80;;;;;;5038632;28;20124;-78
2021/04/14 00:13:32;;;;;;;4.10;2.88;;;8.10;58.90;;;;;;5051379;28;20103;-79
2021/04/14 00:15:59;;;;;;;3.65;2.80;;;8.10;58.90;;;;;;5057920;28;20347;-80
2021/04/14 00:18:26;;;;;;;3.80;3.00;;;8.00;58.90;;;;;;5038487;28;20049;-81
2021/04/14 00:20:53;;;;;;;4.18;3.03;;;8.00;58.90;;;;;;5052567;28;20440;-81
2021/04/14 00:23:22;;;;;;;4.88;2.80;;;8.00;58.90;;;;;;5047074;28;20542;-81
2021/04/14 00:25:50;;;;;;;4.80;3.10;;;8.00;59.00;;;;;;5072180;28;20036;-81
2021/04/14 00:28:22;;;;;;;4.35;3.13;;;8.00;59.00;;;;;;5028498;28;20029;-81
2021/04/14 00:30:49;;;;;;;5.43;3.03;;;8.00;59.10;;;;;;5043457;28;20033;-80
2021/04/14 00:33:15;;;;;;;4.80;3.20;;;7.90;59.00;;;;;;5034992;28;20025;-80
2021/04/14 00:35:41;;;;;;;3.63;2.80;;;7.90;59.10;;;;;;5040576;28;20381;-80
2021/04/14 00:38:07;;;;;;;4.13;2.97;;;7.90;59.10;;;;;;5036644;28;20513;-82
2021/04/14 00:40:39;;;;;;;5.07;3.28;;;7.90;59.10;;;;;;5049061;28;20492;-81
2021/04/14 00:43:19;;;;;;;4.82;3.20;;;7.90;59.20;;;;;;5047897;28;20025;-85
2021/04/14 00:45:45;;;;;;;3.70;2.83;;;7.90;59.30;;;;;;5037822;28;20487;-81
2021/04/14 00:48:14;;;;;;;3.83;2.80;;;7.80;59.20;;;;;;5036032;28;20037;-81
2021/04/14 00:50:40;;;;;;;4.82;3.67;;;7.80;59.20;;;;;;5046998;28;20465;-81
2021/04/14 00:53:11;;;;;;;4.07;2.85;;;7.80;59.30;;;;;;5032521;28;20032;-81
2021/04/14 00:55:38;;;;;;;4.15;2.95;;;7.80;59.40;;;;;;5038705;28;20104;-80
2021/04/14 00:58:09;;;;;;;3.33;2.85;;;7.80;59.30;;;;;;5053629;28;20039;-81
2021/04/14 01:00:37;;;;;;;4.32;3.10;;;7.80;59.40;;;;;;5030118;28;20029;-81
2021/04/14 01:03:11;;;;;;;3.65;2.80;;;7.80;59.40;;;;;;5041380;28;20033;-81
2021/04/14 01:05:38;;;;;;;4.70;2.88;;;7.80;59.40;;;;;;5025399;28;20021;-81
2021/04/14 01:08:05;;;;;;;3.97;2.88;;;7.70;59.40;;;;;;5054283;28;20079;-81
2021/04/14 01:10:31;;;;;;;3.63;2.78;;;7.70;59.40;;;;;;5044815;28;20044;-81
2021/04/14 01:12:57;;;;;;;4.13;3.10;;;7.70;59.50;;;;;;5044133;28;20028;-81
2021/04/14 01:15:35;;;;;;;4.30;2.95;;;7.70;59.50;;;;;;5045540;28;20036;-90
2021/04/14 01:18:02;;;;;;;4.40;2.70;;;7.70;59.50;;;;;;5041940;28;20076;-81
2021/04/14 01:20:28;;;;;;;3.65;2.88;;;7.70;59.50;;;;;;5041679;28;20540;-86
2021/04/14 01:22:57;;;;;;;4.40;2.92;;;7.70;59.60;;;;;;5036292;28;20128;-83
2021/04/14 01:25:29;;;;;;;3.45;2.72;;;7.70;59.60;;;;;;5028354;28;20025;-80
2021/04/14 01:27:55;;;;;;;3.35;2.42;;;7.70;59.70;;;;;;5050153;28;20541;-81
2021/04/14 01:30:27;;;;;;;4.40;2.83;;;7.70;59.60;;;;;;5054795;28;20112;-83
2021/04/14 01:32:53;;;;;;;4.70;3.20;;;7.60;59.70;;;;;;5070290;28;20040;-80
2021/04/14 01:35:21;;;;;;;4.13;3.05;;;7.60;59.70;;;;;;5027732;28;20047;-80
2021/04/14 01:37:49;;;;;;;4.20;2.95;;;7.60;59.80;;;;;;5035691;28;20024;-80
2021/04/14 01:40:17;;;;;;;4.18;2.88;;;7.60;59.80;;;;;;5045421;28;20064;-80
2021/04/14 01:42:43;;;;;;;4.47;2.90;;;7.60;59.80;;;;;;5057630;28;20044;-81
2021/04/14 01:45:11;;;;;;;4.30;2.88;;;7.60;59.80;;;;;;5040392;28;20032;-80
2021/04/14 01:47:40;;;;;;;3.92;2.80;;;7.60;59.80;;;;;;5055224;28;20082;-81
2021/04/14 01:50:07;;;;;;;3.95;3.00;;;7.60;59.90;;;;;;5053339;28;20037;-80
2021/04/14 01:52:33;;;;;;;4.20;2.85;;;7.50;59.80;;;;;;5066271;28;20112;-81
2021/04/14 01:55:03;;;;;;;4.85;3.05;;;7.50;59.90;;;;;;5029998;28;20028;-82
2021/04/14 01:57:29;;;;;;;4.13;2.75;;;7.50;59.90;;;;;;5045886;28;20073;-81
2021/04/14 01:59:54;;;;;;;4.63;3.13;;;7.50;59.90;;;;;;5049167;28;20115;-81
2021/04/14 02:02:20;;;;;;;5.38;2.80;;;7.50;59.90;;;;;;5049510;28;20031;-80
2021/04/14 02:04:46;;;;;;;4.13;2.75;;;7.50;60.00;;;;;;5035272;28;20055;-81
2021/04/14 02:07:12;;;;;;;3.60;2.60;;;7.50;60.00;;;;;;5049362;28;20469;-80
2021/04/14 02:09:38;;;;;;;4.30;2.97;;;7.50;60.00;;;;;;5023287;28;20028;-80
2021/04/14 02:12:07;;;;;;;4.03;3.00;;;7.50;60.00;;;;;;5043422;28;20037;-80
2021/04/14 02:14:33;;;;;;;5.15;3.40;;;7.40;60.00;;;;;;5037954;28;20035;-80
2021/04/14 02:16:58;;;;;;;3.88;2.90;;;7.40;60.00;;;;;;5032836;28;20474;-80
2021/04/14 02:19:25;;;;;;;3.97;3.00;;;7.50;60.10;;;;;;5024320;28;20136;-80
2021/04/14 02:21:51;;;;;;;4.28;2.88;;;7.40;60.10;;;;;;5042669;28;20032;-81
2021/04/14 02:24:16;;;;;;;4.13;3.00;;;7.40;60.10;;;;;;5048239;28;20376;-80
2021/04/14 02:26:42;;;;;;;2.80;2.42;;;7.40;60.20;;;;;;5034003;28;20048;-81
2021/04/14 02:29:08;;;;;;;3.70;3.10;;;7.40;60.30;;;;;;5034521;28;20107;-80
2021/04/14 02:31:34;;;;;;;3.72;2.92;;;7.40;60.20;;;;;;5038651;28;20446;-81
2021/04/14 02:34:12;;;;;;;5.57;2.70;;;7.40;60.20;;;;;;5037202;28;20029;-80
2021/04/14 02:36:39;;;;;;;3.95;3.00;;;7.40;60.30;;;;;;5046562;28;20036;-81
2021/04/14 02:39:08;;;;;;;3.92;2.92;;;7.40;60.30;;;;;;5029097;28;20123;-80
2021/04/14 02:41:34;;;;;;;3.67;2.92;;;7.40;60.30;;;;;;5074105;28;20028;-81
2021/04/14 02:44:00;;;;;;;4.13;3.15;;;7.30;60.90;;;;;;5036086;28;20430;-80
2021/04/14 02:46:26;;;;;;;3.83;2.85;;;7.30;60.30;;;;;;5026718;28;20025;-80
2021/04/14 02:48:53;;;;;;;3.83;2.78;;;7.30;60.30;;;;;;5054726;28;20033;-80
2021/04/14 02:51:19;;;;;;;4.10;3.13;;;7.30;60.30;;;;;;5006236;28;20096;-80
2021/04/14 02:53:44;;;;;;;4.25;3.20;;;7.30;60.30;;;;;;5071637;28;20035;-80
2021/04/14 02:56:10;;;;;;;3.83;2.90;;;7.30;60.40;;;;;;5032341;28;20448;-80
2021/04/14 02:58:36;;;;;;;4.40;3.15;;;7.30;60.40;;;;;;5021663;28;20120;-80
2021/04/14 03:01:03;;;;;;;3.72;2.80;;;7.30;60.40;;;;;;5028524;28;20481;-80
2021/04/14 03:03:29;;;;;;;3.35;3.00;;;7.30;61.10;;;;;;5057341;28;20036;-80
2021/04/14 03:05:55;;;;;;;4.57;3.13;;;7.30;60.40;;;;;;5022615;28;20037;-80
2021/04/14 03:08:22;;;;;;;4.25;3.17;;;7.30;60.50;;;;;;5029400;28;20028;-81
2021/04/14 03:10:48;;;;;;;3.50;2.80;;;7.20;60.50;;;;;;5040578;28;20036;-80
2021/04/14 03:13:16;;;;;;;4.18;3.35;;;7.20;60.50;;;;;;5032691;28;20028;-81
2021/04/14 03:15:42;;;;;;;3.75;2.90;;;7.20;60.50;;;;;;5035942;28;20116;-81
2021/04/14 03:18:11;;;;;;;4.28;3.05;;;7.20;60.50;;;;;;5039208;28;20040;-80
2021/04/14 03:20:37;;;;;;;3.97;2.88;;;7.20;60.60;;;;;;5043703;28;20381;-81
2021/04/14 03:23:04;;;;;;;4.35;3.08;;;7.20;60.60;;;;;;5004593;28;20610;-85
2021/04/14 03:25:33;;;;;;;4.13;3.22;;;7.20;60.60;;;;;;5027687;28;20025;-80
2021/04/14 03:28:01;;;;;;;4.30;3.00;;;7.20;60.60;;;;;;5048506;28;20087;-82
2021/04/14 03:30:27;;;;;;;4.25;3.05;;;7.20;60.70;;;;;;5053246;28;20043;-80
2021/04/14 03:32:53;;;;;;;4.28;3.10;;;7.20;60.60;;;;;;5033969;28;20029;-81
2021/04/14 03:35:21;;;;;;;4.40;3.58;;;7.20;60.60;;;;;;5050806;28;20032;-81
2021/04/14 03:37:47;;;;;;;4.15;3.08;;;7.20;60.70;;;;;;5049000;28;20029;-80
2021/04/14 03:40:14;;;;;;;4.30;3.30;;;7.10;60.60;;;;;;5026093;28;20420;-80
2021/04/14 03:42:40;;;;;;;4.97;3.65;;;7.10;60.60;;;;;;4997984;28;20024;-80
2021/04/14 03:45:14;;;;;;;4.05;3.25;;;7.10;60.70;;;;;;5048249;28;20020;-81
2021/04/14 03:47:40;;;;;;;4.67;3.47;;;7.10;60.70;;;;;;5038903;28;20044;-80
2021/04/14 03:50:09;;;;;;;4.90;3.60;;;7.10;60.70;;;;;;5018726;28;20037;-82
2021/04/14 03:52:35;;;;;;;4.70;3.83;;;7.10;60.70;;;;;;5024443;28;20028;-81
2021/04/14 03:55:00;;;;;;;4.20;3.30;;;7.10;60.70;;;;;;5018500;28;20025;-81
2021/04/14 03:57:26;;;;;;;4.78;3.70;;;7.00;60.70;;;;;;5017040;28;20041;-80
2021/04/14 03:59:52;;;;;;;4.75;3.33;;;7.00;60.70;;;;;;5021705;28;20044;-81
2021/04/14 04:02:18;;;;;;;5.05;3.90;;;7.00;60.70;;;;;;5034974;28;20481;-82
2021/04/14 04:04:44;;;;;;;4.47;3.40;;;7.00;60.70;;;;;;5045069;28;20036;-79
2021/04/14 04:07:10;;;;;;;4.45;3.38;;;7.00;60.80;;;;;;5019619;28;20025;-80
2021/04/14 04:09:36;;;;;;;4.88;3.78;;;7.00;60.80;;;;;;5044398;28;20035;-80
2021/04/14 04:12:05;;;;;;;4.85;3.53;;;6.90;60.70;;;;;;5046358;28;20394;-80
2021/04/14 04:14:33;;;;;;;4.68;3.75;;;6.90;60.70;;;;;;5010984;28;20040;-81
2021/04/14 04:16:59;;;;;;;4.70;3.97;;;6.90;60.70;;;;;;5048586;28;20021;-81
2021/04/14 04:19:25;;;;;;;5.20;3.85;;;6.90;60.80;;;;;;5007260;28;20061;-80
2021/04/14 04:21:51;;;;;;;4.70;3.38;;;6.90;60.80;;;;;;5016298;28;20041;-80
2021/04/14 04:24:17;;;;;;;4.60;3.63;;;6.90;60.80;;;;;;5008847;28;20032;-83
2021/04/14 04:26:42;;;;;;;5.05;3.80;;;6.90;60.90;;;;;;5008675;28;20030;-82
2021/04/14 04:29:08;;;;;;;5.07;3.70;;;6.80;60.80;;;;;;5015335;28;20033;-81
2021/04/14 04:31:34;;;;;;;5.10;3.92;;;6.80;61.50;;;;;;4982444;28;20033;-84
2021/04/14 04:34:00;;;;;;;4.68;3.40;;;6.80;60.80;;;;;;4989104;28;20386;-81
2021/04/14 04:36:25;;;;;;;5.13;3.60;;;6.80;60.90;;;;;;4996780;28;20461;-79
2021/04/14 04:38:52;;;;;;;5.38;3.70;;;6.80;60.90;;;;;;4999636;28;20128;-78
2021/04/14 04:41:17;;;;;;;4.43;3.70;;;6.70;60.90;;;;;;5024347;28;20030;-81
2021/04/14 04:43:43;;;;;;;5.15;3.92;;;6.80;61.00;;;;;;5027167;28;20033;-84
2021/04/14 04:46:09;;;;;;;5.60;3.90;;;6.70;60.90;;;;;;5024239;28;20032;-79
2021/04/14 04:48:35;;;;;;;4.85;3.65;;;6.70;60.90;;;;;;5027576;28;20439;-80
2021/04/14 04:51:01;;;;;;;5.95;4.32;;;6.70;61.00;;;;;;5014370;28;20030;-81
2021/04/14 04:53:27;;;;;;;5.47;4.25;;;6.70;60.90;;;;;;5000477;28;20073;-81
2021/04/14 04:55:53;;;;;;;5.35;4.15;;;6.70;61.00;;;;;;5025510;28;20489;-81
2021/04/14 04:58:20;;;;;;;5.45;4.18;;;6.70;61.00;;;;;;4998505;28;20026;-80
2021/04/14 05:00:47;;;;;;;4.93;3.67;;;6.70;61.00;;;;;;5014374;28;20060;-80
2021/04/14 05:03:15;;;;;;;5.03;3.90;;;6.70;61.00;;;;;;5034545;28;20025;-80
2021/04/14 05:05:42;;;;;;;6.15;4.32;;;6.70;61.00;;;;;;5005255;28;20030;-81
2021/04/14 05:08:10;;;;;;;4.80;4.10;;;6.70;61.10;;;;;;5006742;28;20065;-80
2021/04/14 05:10:36;;;;;;;5.80;4.25;;;6.60;61.10;;;;;;5029119;28;20106;-79
2021/04/14 05:13:03;;;;;;;6.28;4.88;;;6.70;61.10;;;;;;5036223;28;20021;-80
2021/04/14 05:15:32;;;;;;;5.03;4.10;;;6.60;61.10;;;;;;5034368;28;20470;-81
2021/04/14 05:17:59;;;;;;;4.55;3.85;;;6.60;61.10;;;;;;5037177;28;20131;-81
2021/04/14 05:20:25;;;;;;;5.50;4.45;;;6.60;61.10;;;;;;5040133;28;20113;-81
2021/04/14 05:22:51;;;;;;;5.82;4.38;;;6.60;61.20;;;;;;5055293;28;20154;-81
2021/04/14 05:25:21;;;;;;;5.22;4.10;;;6.60;61.20;;;;;;5033532;28;20032;-82
2021/04/14 05:27:47;;;;;;;5.35;4.13;;;6.60;61.20;;;;;;5052286;28;20473;-85
2021/04/14 05:30:14;;;;;;;4.80;4.20;;;6.60;61.20;;;;;;5005772;28;20543;-82
2021/04/14 05:32:41;;;;;;;5.22;4.07;;;6.60;61.20;;;;;;5035069;28;20112;-82
2021/04/14 05:35:08;;;;;;;6.00;4.40;;;6.60;61.20;;;;;;5022292;28;20040;-82
2021/04/14 05:37:34;;;;;;;5.50;4.43;;;6.60;61.20;;;;;;5049895;28;20031;-81
2021/04/14 05:40:00;;;;;;;6.28;4.43;;;6.60;61.30;;;;;;5041088;28;20025;-81
2021/04/14 05:42:26;;;;;;;5.07;4.00;;;6.60;61.30;;;;;;5037775;28;20035;-80
2021/04/14 05:44:53;;;;;;;5.95;4.50;;;6.60;61.30;;;;;;5037348;28;20021;-81
2021/04/14 05:47:18;;;;;;;7.70;4.00;;;6.60;61.30;;;;;;5029498;28;20048;-81
2021/04/14 05:49:44;;;;;;;5.25;3.90;;;6.60;61.30;;;;;;5021437;28;20068;-81
2021/04/14 05:52:10;;;;;;;5.60;4.22;;;6.60;61.30;;;;;;5035032;28;20442;-82
2021/04/14 05:54:36;;;;;;;4.90;3.97;;;6.60;61.30;;;;;;5049094;28;20064;-82
2021/04/14 05:57:02;;;;;;;4.90;3.30;;;6.60;61.30;;;;;;5022876;28;20029;-82
2021/04/14 05:59:30;;;;;;;6.10;4.20;;;6.60;61.40;;;;;;5055547;28;20051;-82
2021/04/14 06:01:59;;;;;;;5.55;3.40;;;6.60;61.40;;;;;;5039634;28;20107;-82
2021/04/14 06:04:24;;;;;;;5.25;3.92;;;6.60;61.40;;;;;;5025822;28;20076;-82
2021/04/14 06:06:50;;;;;;;5.80;4.10;;;6.60;61.40;;;;;;5034949;28;20036;-82
2021/04/14 06:09:16;;;;;;;5.13;4.05;;;6.60;61.40;;;;;;5037480;28;20378;-82
2021/04/14 06:11:42;;;;;;;5.38;4.00;;;6.60;61.40;;;;;;5029258;28;20132;-82
2021/04/14 06:14:08;;;;;;;5.32;3.70;;;6.60;61.40;;;;;;5023867;28;20483;-82
2021/04/14 06:16:33;;;;;;;5.43;3.97;;;6.60;61.40;;;;;;5053062;28;20040;-81
2021/04/14 06:19:00;;;;;;;5.22;4.30;;;6.70;61.50;;;;;;5040147;28;20049;-82
2021/04/14 06:21:27;;;;;;;5.38;3.65;;;6.70;61.50;;;;;;5030757;28;20089;-81
2021/04/14 06:23:53;;;;;;;4.78;3.53;;;6.70;61.50;;;;;;5040767;28;20031;-85
2021/04/14 06:29:03;;;;;;;4.65;3.47;;;6.70;61.50;;;;;;5037309;28;20044;-82
2021/04/14 06:31:39;;;;;;;5.57;3.85;;;6.70;61.50;;;;;;5030052;28;20040;-79
2021/04/14 06:34:19;;;;;;;5.90;4.03;;;6.70;61.50;;;;;;5056489;28;20028;-82
2021/04/14 06:36:47;;;;;;;5.13;3.65;;;6.80;61.50;;;;;;5040171;28;20054;-79
2021/04/14 06:39:15;;;;;;;5.53;3.70;;;6.80;61.50;;;;;;5037846;28;20021;-79
2021/04/14 06:42:15;;;;;;;4.75;3.80;;;6.80;61.60;;;;;;5045631;28;20384;-79
2021/04/14 06:45:12;;;;;;;5.78;3.97;;;6.80;61.70;;;;;;5043434;28;20032;-79
2021/04/14 06:47:59;;;;;;;5.32;3.92;;;6.80;61.70;;;;;;5070202;28;20035;-79
2021/04/14 06:50:45;;;;;;;4.93;3.80;;;6.80;61.70;;;;;;5045842;28;20043;-80
2021/04/14 06:53:14;;;;;;;5.90;3.97;;;6.90;61.80;;;;;;5055721;28;20028;-80
2021/04/14 06:55:53;;;;;;;4.93;3.70;;;6.90;61.70;;;;;;5062472;28;20013;-80
2021/04/14 06:58:22;;;;;;;6.15;4.10;;;6.90;61.80;;;;;;5050907;28;20032;-80
2021/04/14 07:00:56;;;;;;;5.13;3.80;;;6.90;61.70;;;;;;5044509;28;20359;-81
2021/04/14 07:03:29;;;;;;;4.93;3.30;;;7.00;61.80;;;;;;5053659;28;20100;-80
2021/04/14 07:06:07;;;;;;;5.07;3.53;;;7.00;61.80;;;;;;5044329;28;20037;-79
2021/04/14 07:08:38;;;;;;;5.38;3.60;;;7.00;61.80;;;;;;5051679;28;20107;-79
2021/04/14 07:11:06;;;;;;;5.15;3.63;;;7.00;61.70;;;;;;5066515;28;20380;-82
2021/04/14 07:13:36;;;;;;;5.13;3.70;;;7.00;61.70;;;;;;5029095;28;20053;-83
2021/04/14 07:16:16;;;;;;;5.03;3.63;;;7.10;61.80;;;;;;5050190;28;20031;-83
2021/04/14 07:18:49;;;;;;;5.85;3.53;;;7.10;61.80;;;;;;5036397;28;20084;-80
2021/04/14 07:22:03;;;;;;;4.78;3.40;;;7.10;61.80;;;;;;5070969;28;20476;-80
2021/04/14 07:24:38;;;;;;;4.90;3.40;;;7.20;62.00;;;;;;5020355;28;20068;-81
2021/04/14 07:27:25;;;;;;;5.10;3.50;;;7.20;61.80;;;;;;5046945;28;20043;-82
2021/04/14 07:30:06;;;;;;;4.80;3.28;;;7.20;61.80;;;;;;5037743;28;20035;-82
2021/04/14 07:33:02;;;;;;;4.85;3.63;;;7.20;61.90;;;;;;5044038;28;20033;-81
2021/04/14 07:35:34;;;;;;;4.13;3.15;;;7.30;62.00;;;;;;5022981;28;20385;-80
2021/04/14 07:38:21;;;;;;;5.30;3.65;;;7.30;61.80;;;;;;5042024;28;20033;-80
2021/04/14 07:40:59;;;;;;;4.13;3.30;;;7.30;62.00;;;;;;5039115;28;20476;-81
2021/04/14 07:43:43;;;;;;;5.88;3.90;;;7.40;62.00;;;;;;5029356;28;20020;-82
2021/04/14 07:46:11;;;;;;;4.18;3.05;;;7.40;62.00;;;;;;5055353;28;20035;-80
2021/04/14 07:48:39;;;;;;;4.70;3.40;;;7.40;61.90;;;;;;5037076;28;20108;-83
2021/04/14 07:51:11;;;;;;;4.43;3.45;;;7.40;61.90;;;;;;5026785;28;20339;-82
2021/04/14 07:53:39;;;;;;;4.63;3.38;;;7.50;61.90;;;;;;5029331;28;20035;-81
2021/04/14 07:56:19;;;;;;;4.07;2.92;;;7.50;61.90;;;;;;5045501;28;20069;-81
2021/04/14 07:58:47;;;;;;;4.88;3.08;;;7.50;62.00;;;;;;5036577;28;20465;-81
2021/04/14 08:01:23;;;;;;;3.83;3.08;;;7.60;61.90;;;;;;5003365;28;20129;-80
2021/04/14 08:03:50;;;;;;;5.43;3.63;;;7.60;62.00;;;;;;5070753;28;20033;-81
2021/04/14 08:06:26;;;;;;;4.32;3.08;;;7.60;61.90;;;;;;5038380;28;20103;-80
2021/04/14 08:08:52;;;;;;;4.40;3.17;;;7.70;61.90;;;;;;5064460;28;20033;-80
2021/04/14 08:11:31;;;;;;;5.03;3.55;;;7.70;61.80;;;;;;5049156;28;20118;-80
2021/04/14 08:14:19;;;;;;;4.78;3.33;;;7.80;62.10;;;;;;5066135;28;20039;-81
2021/04/14 08:16:49;;;;;;;4.45;3.20;;;7.80;62.00;;;;;;5051934;28;20036;-80
2021/04/14 08:19:19;;;;;;;4.85;3.33;;;7.80;61.80;;;;;;5031259;28;20087;-81
2021/04/14 08:22:12;;;;;;;5.22;3.65;;;7.90;61.90;;;;;;5018977;28;20087;-81
2021/04/14 08:24:49;;;;;;;4.30;3.13;;;7.90;61.90;;;;;;5030226;28;20026;-81
2021/04/14 08:27:32;;;;;;;4.65;3.10;;;7.90;61.90;;;;;;5013604;28;20060;-80
2021/04/14 08:30:07;;;;;;;4.93;3.33;;;7.90;61.90;;;;;;5017362;28;20028;-81
2021/04/14 08:32:42;;;;;;;3.65;2.75;;;8.00;61.80;;;;;;5015217;28;20363;-82
2021/04/14 08:35:30;;;;;;;4.55;3.05;;;8.00;61.90;;;;;;5014070;28;20017;-84
2021/04/14 08:38:02;;;;;;;4.43;3.10;;;8.10;61.90;;;;;;5026174;28;20025;-82
2021/04/14 08:40:30;;;;;;;4.95;3.08;;;8.10;61.90;;;;;;5007911;28;20033;-82
2021/04/14 08:43:07;;;;;;;5.28;3.30;;;8.10;61.80;;;;;;5012073;28;20041;-82
2021/04/14 08:45:35;;;;;;;5.50;3.03;;;8.20;61.90;;;;;;5002792;28;20083;-83
2021/04/14 08:48:15;;;;;;;4.85;3.33;;;8.20;61.80;;;;;;5019464;28;20026;-83
2021/04/14 08:50:54;;;;;;;5.65;3.58;;;8.20;61.80;;;;;;5002627;28;20429;-82
2021/04/14 08:53:27;;;;;;;4.20;3.13;;;8.30;61.80;;;;;;5019009;28;20025;-83
2021/04/14 08:55:53;;;;;;;4.85;3.60;;;8.40;61.70;;;;;;5023438;28;20498;-84
2021/04/14 08:58:20;;;;;;;4.47;3.30;;;8.40;61.70;;;;;;4992929;28;20029;-83
2021/04/14 09:00:47;;;;;;;5.15;3.30;;;8.40;61.60;;;;;;5025102;28;20034;-83
2021/04/14 09:03:18;;;;;;;4.53;3.38;;;8.50;61.60;;;;;;5024378;28;20469;-82
2021/04/14 09:05:45;;;;;;;4.22;2.92;;;8.50;61.60;;;;;;4997332;28;20521;-82
2021/04/14 09:08:17;;;;;;;5.07;3.40;;;8.50;61.50;;;;;;4994605;28;20034;-83
2021/04/14 09:11:05;;;;;;;4.65;3.15;;;8.60;61.60;;;;;;5026570;28;20026;-83
2021/04/14 09:13:42;;;;;;;5.38;3.30;;;8.70;61.60;;;;;;5006081;28;20144;-83
2021/04/14 09:16:08;;;;;;;4.88;3.20;;;8.70;61.50;;;;;;5011857;28;20022;-83
2021/04/14 09:18:43;;;;;;;5.05;3.60;;;8.70;61.40;;;;;;5013801;28;20079;-86
2021/04/14 09:21:17;;;;;;;4.70;3.50;;;8.80;61.50;;;;;;5037628;28;20030;-84
2021/04/14 09:23:58;;;;;;;6.07;3.60;;;8.80;61.50;;;;;;5041039;28;20095;-83
2021/04/14 09:26:37;;;;;;;4.50;3.15;;;8.90;61.50;;;;;;5051241;28;20057;-83
2021/04/14 09:29:14;;;;;;;4.90;3.42;;;8.90;61.40;;;;;;5023879;28;20049;-83
2021/04/14 09:31:51;;;;;;;5.80;3.90;;;9.00;61.40;;;;;;5045508;28;20018;-86
2021/04/14 09:34:22;;;;;;;4.68;3.30;;;9.00;61.40;;;;;;5027224;28;20036;-84
2021/04/14 09:37:00;;;;;;;5.32;3.78;;;9.10;61.30;;;;;;5032293;28;20065;-83
2021/04/14 09:39:37;;;;;;;5.50;3.90;;;9.10;61.30;;;;;;5027507;28;20473;-83
2021/04/14 09:42:34;;;;;;;4.80;3.47;;;9.20;61.30;;;;;;5041674;28;20017;-84
2021/04/14 09:45:32;;;;;;;5.28;3.50;;;9.30;61.30;;;;;;5036746;28;20034;-83
2021/04/14 09:48:01;;;;;;;4.88;3.38;;;9.40;61.40;;;;;;5041935;28;20033;-84
2021/04/14 09:50:31;;;;;;;4.75;3.63;;;9.40;61.20;;;;;;5048366;28;20060;-83
2021/04/14 09:53:05;;;;;;;5.18;3.42;;;9.50;61.20;;;;;;5037786;28;20030;-81
2021/04/14 09:55:45;;;;;;;5.60;3.70;;;9.60;61.20;;;;;;5050334;28;20075;-84
2021/04/14 09:58:22;;;;;;;5.55;3.83;;;9.60;61.00;;;;;;5055035;28;20279;-84
2021/04/14 10:00:53;;;;;;;5.47;3.75;;;9.70;61.00;;;;;;5018455;28;20053;-92
2021/04/14 10:03:42;;;;;;;4.90;3.65;;;9.80;60.90;;;;;;5037310;28;20063;-90
2021/04/14 10:06:14;;;;;;;5.32;3.95;;;9.80;60.90;;;;;;5044767;28;20025;-89
2021/04/14 10:08:43;;;;;;;6.07;4.00;;;9.90;60.80;;;;;;5037375;28;20124;-88
2021/04/14 10:11:19;;;;;;;;;;;;;;;;;;;;;
2021/04/14 10:13:46;;;;;;;5.40;3.97;;;10.00;60.80;;;;;;5036384;28;20029;-87
2021/04/14 10:16:19;;;;;;;6.35;4.22;;;10.00;60.70;;;;;;5052923;28;20035;-88
2021/04/14 10:18:49;;;;;;;6.40;4.38;;;10.10;60.70;;;;;;5036061;28;20088;-88
2021/04/14 10:21:21;;;;;;;6.30;4.47;;;10.10;60.60;;;;;;5038571;28;20037;-90
2021/04/14 10:23:55;;;;;;;5.55;4.13;;;10.20;60.70;;;;;;5038319;28;20035;-87
2021/04/14 10:26:22;;;;;;;6.03;4.40;;;10.20;60.70;;;;;;5054549;28;20029;-91
2021/04/14 10:28:50;;;;;;;6.22;4.22;;;10.20;60.60;;;;;;5024540;28;20025;-90
2021/04/14 10:31:22;;;;;;;6.50;4.72;;;10.20;60.60;;;;;;5051046;28;20094;-84
2021/04/14 10:33:50;;;;;;;6.45;4.45;;;10.30;60.70;;;;;;5035841;28;20450;-85
2021/04/14 10:36:37;;;;;;;6.10;4.35;;;10.30;60.70;;;;;;5037818;28;20082;-85
2021/04/14 10:39:31;;;;;;;6.90;4.90;;;10.30;60.80;;;;;;5038680;28;20080;-83
2021/04/14 10:41:58;;;;;;;6.50;4.55;;;10.30;60.80;;;;;;5015223;28;20159;-82
2021/04/14 10:44:27;;;;;;;6.28;4.38;;;10.30;60.70;;;;;;5034139;28;20039;-83
2021/04/14 10:47:25;;;;;;;6.35;4.80;;;10.30;60.70;;;;;;5050660;28;20029;-83
2021/04/14 10:49:59;;;;;;;6.07;4.25;;;10.30;60.70;;;;;;5034634;28;20025;-83
2021/04/14 10:52:28;;;;;;;5.07;3.88;;;10.40;60.80;;;;;;5034314;28;20478;-83
2021/04/14 10:54:59;;;;;;;5.70;4.43;;;10.40;60.80;;;;;;5046682;28;20041;-84
2021/04/14 10:57:38;;;;;;;6.10;4.00;;;10.40;60.80;;;;;;5045157;28;20347;-84
2021/04/14 11:00:12;;;;;;;6.05;4.13;;;10.40;60.80;;;;;;5039613;28;20535;-83
2021/04/14 11:02:43;;;;;;;6.10;4.10;;;10.50;60.80;;;;;;5047585;28;20025;-83
2021/04/14 11:05:11;;;;;;;6.07;4.20;;;10.40;60.70;;;;;;5029559;28;20370;-83
2021/04/14 11:07:38;;;;;;;5.85;4.15;;;10.50;60.80;;;;;;5033161;28;20052;-82
2021/04/14 11:10:08;;;;;;;6.47;4.50;;;10.50;60.80;;;;;;5033800;28;20041;-84
2021/04/14 11:12:34;;;;;;;6.45;4.65;;;10.50;60.80;;;;;;5030423;28;20060;-83
2021/04/14 11:15:13;;;;;;;5.28;3.97;;;10.50;60.80;;;;;;5012165;28;20478;-83
2021/04/14 11:17:39;;;;;;;5.88;4.22;;;10.50;60.80;;;;;;5034933;28;20021;-82
2021/04/14 11:20:15;;;;;;;5.60;3.90;;;10.60;60.80;;;;;;5027765;28;20518;-83
2021/04/14 11:22:50;;;;;;;6.25;4.03;;;10.60;60.80;;;;;;5062831;28;21140;-82
2021/04/14 11:25:29;;;;;;;5.72;3.97;;;10.60;60.80;;;;;;5036394;28;20412;-84
2021/04/14 11:28:18;;;;;;;5.63;3.78;;;10.60;60.80;;;;;;5052708;28;20028;-85
2021/04/14 11:30:55;;;;;;;4.72;3.80;;;10.60;60.80;;;;;;5055146;28;20397;-84
2021/04/14 11:33:40;;;;;;;5.35;3.92;;;10.70;60.70;;;;;;5043619;28;20021;-84
2021/04/14 11:36:24;;;;;;;5.70;3.60;;;10.70;60.80;;;;;;5043427;28;20029;-84
2021/04/14 11:39:17;;;;;;;5.43;3.83;;;10.70;60.70;;;;;;5036784;28;20029;-84
2021/04/14 11:41:50;;;;;;;5.10;3.70;;;10.70;60.70;;;;;;5040057;28;20480;-84
2021/04/14 11:44:23;;;;;;;5.18;3.80;;;10.80;60.70;;;;;;5028901;28;20035;-84
2021/04/14 11:47:02;;;;;;;5.00;3.65;;;10.80;60.70;;;;;;5073538;28;20028;-85
2021/04/14 11:49:36;;;;;;;5.07;3.83;;;10.80;60.60;;;;;;5036699;28;20033;-84
2021/04/14 11:52:36;;;;;;;5.57;3.60;;;10.80;60.60;;;;;;5025668;28;20028;-84
2021/04/14 11:55:20;;;;;;;5.30;3.63;;;10.90;60.70;;;;;;4982990;28;20044;-84
2021/04/14 11:57:57;;;;;;;5.13;3.67;;;10.90;60.60;;;;;;5038221;28;20021;-85
2021/04/14 12:00:37;;;;;;;5.32;3.67;;;11.00;60.50;;;;;;5042466;28;20040;-84
2021/04/14 12:03:29;;;;;;;5.28;3.88;;;10.90;60.50;;;;;;5045435;28;20126;-84
2021/04/14 12:05:58;;;;;;;5.70;3.65;;;11.00;60.50;;;;;;5027745;28;20052;-84
2021/04/14 12:08:24;;;;;;;5.13;3.80;;;11.10;60.40;;;;;;5067878;28;20473;-88
2021/04/14 12:10:53;;;;;;;5.05;3.63;;;11.10;60.40;;;;;;5042260;28;20472;-87
2021/04/14 12:13:21;;;;;;;5.53;3.90;;;11.10;60.40;;;;;;5066297;28;20021;-88
2021/04/14 12:15:48;;;;;;;5.53;3.60;;;11.10;60.40;;;;;;5013935;28;20086;-91
2021/04/14 12:18:14;;;;;;;4.47;3.25;;;11.20;60.40;;;;;;5028830;28;20136;-86
2021/04/14 12:20:40;;;;;;;5.30;3.80;;;11.20;60.40;;;;;;5013378;28;20030;-85
2021/04/14 12:23:06;;;;;;;4.57;3.58;;;11.30;60.40;;;;;;4998445;28;20034;-86
2021/04/14 12:25:31;;;;;;;6.95;3.65;;;11.30;60.40;;;;;;5024412;28;20072;-86
2021/04/14 12:27:57;;;;;;;5.22;3.55;;;11.40;60.40;;;;;;5031345;28;20022;-84
2021/04/14 12:30:26;;;;;;;4.72;3.17;;;11.40;60.40;;;;;;5032073;28;20044;-86
2021/04/14 12:32:52;;;;;;;4.90;3.60;;;11.40;60.40;;;;;;4997806;28;20097;-88
2021/04/14 12:35:19;;;;;;;4.68;3.20;;;11.50;60.40;;;;;;5003045;28;20044;-86
2021/04/14 12:37:45;;;;;;;4.40;3.33;;;11.60;60.50;;;;;;5015974;28;20017;-87
2021/04/14 12:40:15;;;;;;;4.93;3.40;;;11.60;60.40;;;;;;5014696;28;20482;-87
2021/04/14 12:42:41;;;;;;;5.05;3.70;;;11.70;60.40;;;;;;4997205;28;20498;-87
2021/04/14 12:45:35;;;;;;;4.70;3.10;;;11.80;60.40;;;;;;5016292;28;20104;-87
2021/04/14 12:48:02;;;;;;;5.03;3.42;;;11.80;60.40;;;;;;5003939;28;20029;-90
2021/04/14 12:50:28;;;;;;;5.05;3.58;;;11.90;60.20;;;;;;5000432;28;20046;-89
2021/04/14 12:52:57;;;;;;;5.78;3.30;;;12.00;60.10;;;;;;5000211;28;20038;-90
2021/04/14 12:55:41;;;;;;;4.20;2.90;;;12.10;60.10;;;;;;4999015;28;20110;-90
2021/04/14 12:58:09;;;;;;;5.15;3.30;;;12.10;60.10;;;;;;5006904;28;20109;-90
2021/04/14 13:00:38;;;;;;;4.63;3.33;;;12.20;60.00;;;;;;5009604;28;20498;-89
2021/04/14 13:03:18;;;;;;;4.13;3.05;;;12.30;60.00;;;;;;5032518;28;20035;-87
2021/04/14 13:05:48;;;;;;;5.25;3.38;;;12.30;59.90;;;;;;5027638;28;20039;-88
2021/04/14 13:08:19;;;;;;;4.28;3.13;;;12.40;59.90;;;;;;5021392;28;20022;-88
2021/04/14 13:11:02;;;;;;;4.30;3.08;;;12.50;59.90;;;;;;5019050;28;20033;-87
2021/04/14 13:13:28;;;;;;;4.38;2.97;;;12.50;59.80;;;;;;5015696;28;20076;-87
2021/04/14 13:16:07;;;;;;;4.22;2.88;;;12.60;59.70;;;;;;5032409;28;20010;-87
2021/04/14 13:18:39;;;;;;;3.80;2.67;;;12.60;59.80;;;;;;5030032;28;20053;-94